createdAt,value
2018-06-11T00:01:11.874Z,17.40
2018-06-11T00:03:39.342Z,17.40
2018-06-11T00:06:06.806Z,17.30
2018-06-11T00:08:34.242Z,17.30
2018-06-11T00:11:01.718Z,17.30
2018-06-11T00:13:29.138Z,17.30
2018-06-11T00:15:56.582Z,17.30
2018-06-11T00:18:24.011Z,17.30
2018-06-11T00:20:51.462Z,17.20
2018-06-11T00:23:18.382Z,17.10
2018-06-11T00:25:46.199Z,17.10
2018-06-11T00:28:13.642Z,17.10
2018-06-11T00:30:41.062Z,17.10
2018-06-11T00:33:08.526Z,17.00
2018-06-11T00:35:36.327Z,17.00
2018-06-11T00:38:03.783Z,16.90
2018-06-11T00:40:31.262Z,16.90
2018-06-11T00:42:58.953Z,16.80
2018-06-11T00:45:26.402Z,16.80
2018-06-11T00:47:53.850Z,16.80
2018-06-11T00:50:21.309Z,16.80
2018-06-11T00:52:48.770Z,16.80
2018-06-11T00:55:16.492Z,16.70
2018-06-11T00:57:43.930Z,16.70
2018-06-11T01:00:11.394Z,16.60
2018-06-11T01:02:38.833Z,16.60
2018-06-11T01:05:06.285Z,16.60
2018-06-11T01:07:35.059Z,16.50
2018-06-11T01:10:04.065Z,16.50
2018-06-11T01:12:31.520Z,16.50
2018-06-11T01:14:58.982Z,16.40
2018-06-11T01:17:26.662Z,16.40
2018-06-11T01:19:54.083Z,16.40
2018-06-11T01:22:21.035Z,16.40
2018-06-11T01:24:48.466Z,16.30
2018-06-11T01:27:15.946Z,16.30
2018-06-11T01:29:43.497Z,16.30
2018-06-11T01:32:10.958Z,16.30
2018-06-11T01:34:37.886Z,16.30
2018-06-11T01:37:05.357Z,16.30
2018-06-11T01:39:32.790Z,16.30
2018-06-11T01:41:59.722Z,16.20
2018-06-11T01:44:27.557Z,16.20
2018-06-11T01:46:55.007Z,16.10
2018-06-11T01:49:22.690Z,16.00
2018-06-11T01:51:50.151Z,16.00
2018-06-11T01:54:17.593Z,16.00
2018-06-11T01:56:45.054Z,16.00
2018-06-11T01:59:12.506Z,16.00
2018-06-11T02:01:39.965Z,15.90
2018-06-11T02:04:07.445Z,15.90
2018-06-11T02:06:34.412Z,15.90
2018-06-11T02:09:01.339Z,15.90
2018-06-11T02:11:28.290Z,15.90
2018-06-11T02:13:55.209Z,15.90
2018-06-11T02:16:22.153Z,15.90
2018-06-11T02:18:49.579Z,15.90
2018-06-11T02:21:16.521Z,15.80
2018-06-11T02:23:43.954Z,15.80
2018-06-11T02:26:11.406Z,15.70
2018-06-11T02:28:38.846Z,15.70
2018-06-11T02:31:06.298Z,15.70
2018-06-11T02:33:33.547Z,15.60
2018-06-11T02:36:00.488Z,15.60
2018-06-11T02:38:27.927Z,15.60
2018-06-11T02:40:55.399Z,15.60
2018-06-11T02:43:22.331Z,15.60
2018-06-11T02:45:49.287Z,15.50
2018-06-11T02:48:16.722Z,15.50
2018-06-11T02:50:44.197Z,15.60
2018-06-11T02:53:11.620Z,15.60
2018-06-11T02:55:39.096Z,15.60
2018-06-11T02:58:06.006Z,15.50
2018-06-11T03:00:33.546Z,15.50
2018-06-11T03:03:00.986Z,15.50
2018-06-11T03:05:28.502Z,15.40
2018-06-11T03:07:55.421Z,15.40
2018-06-11T03:10:23.167Z,15.40
2018-06-11T03:12:50.613Z,15.40
2018-06-11T03:15:17.914Z,15.50
2018-06-11T03:17:45.334Z,15.60
2018-06-11T03:20:12.790Z,15.60
2018-06-11T03:22:39.714Z,15.60
2018-06-11T03:25:06.669Z,15.60
2018-06-11T03:27:34.099Z,15.70
2018-06-11T03:30:01.542Z,15.70
2018-06-11T03:32:28.991Z,15.80
2018-06-11T03:34:56.842Z,15.80
2018-06-11T03:37:24.078Z,15.70
2018-06-11T03:42:18.461Z,15.70
2018-06-11T03:44:45.381Z,15.70
2018-06-11T03:47:12.323Z,15.70
2018-06-11T03:49:39.238Z,15.80
2018-06-11T03:52:06.186Z,15.80
2018-06-11T03:54:33.166Z,15.70
2018-06-11T03:57:00.107Z,15.80
2018-06-11T03:59:27.021Z,15.80
2018-06-11T04:01:54.201Z,15.80
2018-06-11T04:04:21.130Z,15.80
2018-06-11T04:06:48.074Z,15.90
2018-06-11T04:09:14.986Z,16.00
2018-06-11T04:11:41.930Z,16.00
2018-06-11T04:14:08.854Z,16.10
2018-06-11T04:16:35.769Z,16.20
2018-06-11T04:19:02.760Z,16.30
2018-06-11T04:21:29.662Z,16.40
2018-06-11T04:23:56.602Z,16.60
2018-06-11T04:26:23.525Z,16.80
2018-06-11T04:28:50.470Z,17.00
2018-06-11T04:31:17.386Z,17.00
2018-06-11T04:33:44.333Z,17.00
2018-06-11T04:36:11.545Z,17.10
2018-06-11T04:38:38.490Z,17.10
2018-06-11T04:41:05.411Z,17.10
2018-06-11T04:43:32.349Z,17.10
2018-06-11T04:45:59.270Z,17.20
2018-06-11T04:48:26.219Z,17.20
2018-06-11T04:50:53.133Z,17.10
2018-06-11T04:53:20.070Z,17.10
2018-06-11T04:55:46.981Z,17.10
2018-06-11T04:58:13.922Z,17.10
2018-06-11T05:00:40.978Z,17.10
2018-06-11T05:03:08.433Z,17.00
2018-06-11T05:05:35.369Z,17.00
2018-06-11T05:08:02.366Z,16.90
2018-06-11T05:10:29.269Z,16.80
2018-06-11T05:15:23.354Z,16.70
2018-06-11T05:20:17.196Z,16.60
2018-06-11T05:22:44.667Z,16.90
2018-06-11T05:25:12.106Z,17.10
2018-06-11T05:27:39.053Z,17.60
2018-06-11T05:30:06.230Z,18.00
2018-06-11T05:32:33.162Z,18.40
2018-06-11T05:35:00.096Z,18.70
2018-06-11T05:37:27.026Z,19.10
2018-06-11T05:39:53.941Z,19.40
2018-06-11T05:42:20.869Z,19.30
2018-06-11T05:44:47.795Z,19.30
2018-06-11T05:47:14.735Z,19.40
2018-06-11T05:49:41.655Z,19.60
2018-06-11T05:52:08.590Z,19.60
2018-06-11T05:54:35.506Z,19.60
2018-06-11T05:57:02.453Z,19.50
2018-06-11T05:59:29.374Z,19.40
2018-06-11T06:01:56.306Z,19.20
2018-06-11T06:04:23.230Z,19.00
2018-06-11T06:06:50.194Z,19.00
2018-06-11T06:09:17.109Z,18.90
2018-06-11T06:11:44.074Z,19.00
2018-06-11T06:14:11.048Z,19.20
2018-06-11T06:16:37.985Z,19.30
2018-06-11T06:19:05.390Z,19.60
2018-06-11T06:21:32.306Z,20.10
2018-06-11T06:23:59.259Z,20.30
2018-06-11T06:26:26.175Z,20.40
2018-06-11T06:28:53.113Z,20.50
2018-06-11T06:31:20.286Z,20.70
2018-06-11T06:33:47.226Z,20.70
2018-06-11T06:36:14.137Z,20.80
2018-06-11T06:38:41.086Z,21.00
2018-06-11T06:41:08.277Z,21.30
2018-06-11T06:43:35.218Z,21.30
2018-06-11T06:46:02.369Z,21.20
2018-06-11T06:48:29.310Z,21.10
2018-06-11T06:50:56.254Z,21.30
2018-06-11T06:53:23.189Z,21.30
2018-06-11T06:55:50.102Z,21.60
2018-06-11T06:58:17.562Z,22.00
2018-06-11T07:00:44.496Z,22.20
2018-06-11T07:03:11.429Z,22.50
2018-06-11T07:05:38.350Z,22.40
2018-06-11T07:08:05.295Z,22.30
2018-06-11T07:10:32.242Z,22.40
2018-06-11T07:12:59.194Z,22.50
2018-06-11T07:15:26.210Z,23.00
2018-06-11T07:17:53.145Z,23.50
2018-06-11T07:20:20.058Z,23.60
2018-06-11T07:22:46.974Z,23.60
2018-06-11T07:25:13.914Z,23.20
2018-06-11T07:27:41.355Z,23.10
2018-06-11T07:30:08.541Z,22.80
2018-06-11T07:32:35.531Z,22.40
2018-06-11T07:35:02.530Z,22.20
2018-06-11T07:37:29.474Z,21.90
2018-06-11T07:39:56.430Z,21.60
2018-06-11T07:42:23.661Z,21.70
2018-06-11T07:44:50.601Z,21.70
2018-06-11T07:47:17.526Z,21.80
2018-06-11T07:49:44.467Z,21.90
2018-06-11T07:52:11.402Z,22.00
2018-06-11T07:54:38.361Z,22.10
2018-06-11T07:57:05.278Z,21.80
2018-06-11T07:59:32.214Z,21.40
2018-06-11T08:01:59.174Z,21.10
2018-06-11T08:04:26.113Z,21.10
2018-06-11T08:06:53.026Z,20.90
2018-06-11T08:09:19.970Z,21.00
2018-06-11T08:11:46.910Z,20.70
2018-06-11T08:14:13.850Z,20.60
2018-06-11T08:16:40.769Z,20.80
2018-06-11T08:19:07.707Z,21.00
2018-06-11T08:21:34.634Z,21.60
2018-06-11T08:24:01.781Z,22.10
2018-06-11T08:26:28.735Z,22.40
2018-06-11T08:28:55.657Z,22.30
2018-06-11T08:31:22.610Z,22.20
2018-06-11T08:33:49.583Z,22.30
2018-06-11T08:36:16.503Z,22.30
2018-06-11T08:38:43.422Z,22.30
2018-06-11T08:41:10.370Z,22.30
2018-06-11T08:43:37.290Z,22.50
2018-06-11T08:46:04.222Z,22.50
2018-06-11T08:48:31.134Z,22.70
2018-06-11T08:50:58.070Z,22.90
2018-06-11T08:53:25.298Z,22.90
2018-06-11T08:55:52.242Z,23.10
2018-06-11T08:58:19.157Z,22.70
2018-06-11T09:00:46.102Z,22.50
2018-06-11T09:03:13.022Z,22.80
2018-06-11T09:05:39.974Z,22.70
2018-06-11T09:08:06.896Z,22.70
2018-06-11T09:10:34.383Z,23.00
2018-06-11T09:13:01.307Z,23.50
2018-06-11T09:15:28.250Z,23.80
2018-06-11T09:17:55.697Z,23.80
2018-06-11T09:20:22.943Z,24.10
2018-06-11T09:22:49.870Z,24.60
2018-06-11T09:25:16.785Z,25.20
2018-06-11T09:27:43.727Z,25.30
2018-06-11T09:30:10.642Z,25.60
2018-06-11T09:32:37.579Z,26.00
2018-06-11T09:35:04.499Z,26.60
2018-06-11T09:37:31.430Z,28.90
2018-06-11T09:39:58.349Z,29.70
2018-06-11T09:42:25.354Z,30.00
2018-06-11T09:44:52.577Z,29.50
2018-06-11T09:47:19.553Z,29.60
2018-06-11T09:52:13.393Z,29.30
2018-06-11T09:54:40.314Z,29.30
2018-06-11T09:57:07.259Z,29.40
2018-06-11T09:59:34.185Z,29.60
2018-06-11T10:04:28.018Z,31.10
2018-06-11T10:06:54.953Z,31.00
2018-06-11T10:09:21.874Z,31.70
2018-06-11T10:11:48.838Z,32.70
2018-06-11T10:14:15.742Z,33.30
2018-06-11T10:16:42.679Z,33.10
2018-06-11T10:19:09.957Z,34.00
2018-06-11T10:21:36.894Z,34.20
2018-06-11T10:24:03.822Z,33.10
2018-06-11T10:26:30.734Z,32.50
2018-06-11T10:28:57.666Z,32.80
2018-06-11T10:31:24.813Z,33.20
2018-06-11T10:33:51.758Z,33.10
2018-06-11T10:36:18.685Z,33.20
2018-06-11T10:38:45.846Z,34.50
2018-06-11T10:41:12.759Z,35.70
2018-06-11T10:46:06.613Z,38.30
2018-06-11T10:48:33.542Z,38.70
2018-06-11T10:51:00.453Z,39.00
2018-06-11T10:53:27.382Z,38.80
2018-06-11T10:55:54.294Z,39.40
2018-06-11T10:58:21.229Z,39.60
2018-06-11T11:00:48.892Z,39.10
2018-06-11T11:03:15.830Z,39.80
2018-06-11T11:05:42.745Z,40.40
2018-06-11T11:08:09.679Z,40.50
2018-06-11T11:10:36.626Z,41.00
2018-06-11T11:13:03.683Z,41.00
2018-06-11T11:15:30.582Z,40.70
2018-06-11T11:17:57.530Z,41.00
2018-06-11T11:20:24.449Z,40.60
2018-06-11T11:22:51.404Z,40.60
2018-06-11T11:25:18.319Z,40.70
2018-06-11T11:27:45.253Z,40.60
2018-06-11T11:30:12.676Z,40.20
2018-06-11T11:32:39.630Z,39.80
2018-06-11T11:35:06.846Z,39.40
2018-06-11T11:37:33.781Z,38.90
2018-06-11T11:40:01.207Z,38.80
2018-06-11T11:42:28.690Z,39.60
2018-06-11T11:44:55.606Z,39.80
2018-06-11T11:47:22.770Z,40.70
2018-06-11T11:49:50.214Z,41.70
2018-06-11T11:52:17.137Z,42.40
2018-06-11T11:54:44.069Z,41.50
2018-06-11T11:57:10.979Z,40.70
2018-06-11T11:59:37.919Z,40.70
2018-06-11T12:02:04.839Z,41.40
2018-06-11T12:04:32.289Z,41.10
2018-06-11T12:06:59.750Z,41.10
2018-06-11T12:09:27.226Z,41.90
2018-06-11T12:11:54.670Z,42.30
2018-06-11T12:14:22.147Z,42.90
2018-06-11T12:16:49.066Z,42.70
2018-06-11T12:19:16.518Z,43.00
2018-06-11T12:21:43.430Z,43.40
2018-06-11T12:24:10.886Z,42.40
2018-06-11T12:26:38.315Z,42.70
2018-06-11T12:29:05.766Z,43.00
2018-06-11T12:31:33.222Z,42.50
2018-06-11T12:34:00.722Z,42.90
2018-06-11T12:36:27.633Z,42.80
2018-06-11T12:38:55.102Z,42.50
2018-06-11T12:41:22.814Z,42.80
2018-06-11T12:43:49.761Z,43.50
2018-06-11T12:46:17.210Z,43.80
2018-06-11T12:48:44.662Z,42.00
2018-06-11T12:51:12.122Z,41.20
2018-06-11T12:53:39.405Z,38.60
2018-06-11T12:56:06.847Z,38.10
2018-06-11T12:58:34.306Z,38.20
2018-06-11T13:01:01.755Z,38.60
2018-06-11T13:03:29.450Z,38.90
2018-06-11T13:05:56.910Z,39.10
2018-06-11T13:08:24.344Z,39.90
2018-06-11T13:10:51.810Z,39.80
2018-06-11T13:13:19.231Z,40.10
2018-06-11T13:15:46.169Z,39.10
2018-06-11T13:18:13.125Z,39.50
2018-06-11T13:20:40.606Z,38.70
2018-06-11T13:23:08.330Z,37.80
2018-06-11T13:25:35.271Z,36.90
2018-06-11T13:28:02.207Z,36.90
2018-06-11T13:30:29.715Z,37.00
2018-06-11T13:32:57.178Z,36.60
2018-06-11T13:35:24.626Z,36.50
2018-06-11T13:37:52.063Z,37.10
2018-06-11T13:40:19.514Z,37.80
2018-06-11T13:42:46.433Z,37.70
2018-06-11T13:45:14.190Z,38.10
2018-06-11T13:47:41.599Z,38.40
2018-06-11T13:50:09.104Z,38.80
2018-06-11T13:52:35.997Z,38.60
2018-06-11T13:55:03.570Z,38.80
2018-06-11T13:57:30.478Z,39.10
2018-06-11T13:59:57.943Z,39.20
2018-06-11T14:02:24.853Z,38.60
2018-06-11T14:04:52.311Z,38.50
2018-06-11T14:09:47.072Z,38.40
2018-06-11T14:12:14.003Z,38.00
2018-06-11T14:14:41.470Z,37.60
2018-06-11T14:17:08.380Z,37.60
2018-06-11T14:19:35.333Z,37.40
2018-06-11T14:22:02.782Z,38.10
2018-06-11T14:24:30.238Z,38.00
2018-06-11T14:26:57.167Z,37.70
2018-06-11T14:29:24.603Z,37.50
2018-06-11T14:31:52.054Z,37.00
2018-06-11T14:34:19.026Z,36.70
2018-06-11T14:36:46.450Z,36.10
2018-06-11T14:39:13.917Z,36.20
2018-06-11T14:41:41.367Z,36.00
2018-06-11T14:44:08.831Z,35.70
2018-06-11T14:46:36.258Z,35.10
2018-06-11T14:49:03.703Z,34.90
2018-06-11T14:51:30.654Z,34.80
2018-06-11T14:53:58.094Z,34.40
2018-06-11T14:56:25.550Z,33.90
2018-06-11T14:58:52.978Z,33.90
2018-06-11T15:01:19.934Z,33.30
2018-06-11T15:03:47.423Z,33.00
2018-06-11T15:06:15.158Z,32.80
2018-06-11T15:08:42.074Z,32.40
2018-06-11T15:11:09.022Z,31.90
2018-06-11T15:13:36.802Z,31.90
2018-06-11T15:16:04.291Z,31.90
2018-06-11T15:18:31.210Z,32.00
2018-06-11T15:20:58.674Z,31.80
2018-06-11T15:25:53.038Z,31.70
2018-06-11T15:28:19.962Z,31.40
2018-06-11T15:30:47.703Z,30.90
2018-06-11T15:33:15.130Z,30.50
2018-06-11T15:35:42.593Z,30.30
2018-06-11T15:38:10.024Z,30.20
2018-06-11T15:40:36.965Z,30.00
2018-06-11T15:43:04.417Z,29.70
2018-06-11T15:45:31.362Z,29.50
2018-06-11T15:47:58.799Z,29.30
2018-06-11T15:50:25.766Z,29.10
2018-06-11T15:52:53.182Z,28.80
2018-06-11T15:55:20.106Z,28.60
2018-06-11T15:57:47.562Z,28.40
2018-06-11T16:00:14.982Z,27.90
2018-06-11T16:02:42.442Z,27.80
2018-06-11T16:05:09.872Z,27.70
2018-06-11T16:07:36.838Z,27.40
2018-06-11T16:10:04.267Z,27.20
2018-06-11T16:12:31.714Z,26.90
2018-06-11T16:14:58.624Z,26.80
2018-06-11T16:17:26.070Z,26.70
2018-06-11T16:19:52.981Z,26.60
2018-06-11T16:22:20.437Z,26.30
2018-06-11T16:24:48.318Z,26.20
2018-06-11T16:27:15.266Z,26.20
2018-06-11T16:29:42.690Z,26.10
2018-06-11T16:32:09.638Z,26.10
2018-06-11T16:37:03.995Z,25.80
2018-06-11T16:39:30.925Z,25.80
2018-06-11T16:41:58.398Z,25.60
2018-06-11T16:44:25.318Z,25.60
2018-06-11T16:46:52.525Z,25.50
2018-06-11T16:49:19.955Z,25.50
2018-06-11T16:51:46.890Z,25.40
2018-06-11T16:54:14.074Z,25.30
2018-06-11T16:56:41.014Z,25.10
2018-06-11T16:59:08.447Z,25.00
2018-06-11T17:01:35.644Z,24.90
2018-06-11T17:04:02.561Z,24.80
2018-06-11T17:06:29.530Z,24.60
2018-06-11T17:08:56.439Z,24.60
2018-06-11T17:11:23.361Z,24.50
2018-06-11T17:13:50.302Z,24.40
2018-06-11T17:16:17.205Z,24.20
2018-06-11T17:18:44.151Z,24.00
2018-06-11T17:21:11.072Z,23.90
2018-06-11T17:23:38.519Z,23.80
2018-06-11T17:26:05.434Z,23.70
2018-06-11T17:28:32.665Z,23.70
2018-06-11T17:30:59.585Z,23.70
2018-06-11T17:33:26.525Z,23.60
2018-06-11T17:35:53.954Z,23.50
2018-06-11T17:38:20.902Z,23.40
2018-06-11T17:40:48.598Z,23.30
2018-06-11T17:43:15.533Z,23.20
2018-06-11T17:45:42.950Z,23.10
2018-06-11T17:48:10.394Z,23.00
2018-06-11T17:50:37.883Z,22.90
2018-06-11T17:53:06.415Z,22.90
2018-06-11T17:55:33.938Z,22.90
2018-06-11T17:58:01.851Z,22.80
2018-06-11T18:00:28.798Z,22.80
2018-06-11T18:02:55.805Z,22.70
2018-06-11T18:05:22.730Z,22.70
2018-06-11T18:07:50.214Z,22.60
2018-06-11T18:10:17.642Z,22.60
2018-06-11T18:12:44.578Z,22.50
2018-06-11T18:15:11.498Z,22.50
2018-06-11T18:17:38.755Z,22.40
2018-06-11T18:20:05.757Z,22.40
2018-06-11T18:22:32.694Z,22.40
2018-06-11T18:24:59.602Z,22.40
2018-06-11T18:27:26.550Z,22.40
2018-06-11T18:29:53.465Z,22.40
2018-06-11T18:32:20.907Z,22.30
2018-06-11T18:34:47.845Z,22.20
2018-06-11T18:37:14.751Z,22.20
2018-06-11T18:39:41.705Z,22.10
2018-06-11T18:42:08.624Z,22.10
2018-06-11T18:44:35.570Z,21.90
2018-06-11T18:47:02.486Z,21.90
2018-06-11T18:49:30.865Z,21.80
2018-06-11T18:51:58.282Z,21.80
2018-06-11T18:54:25.734Z,21.70
2018-06-11T18:56:53.451Z,21.60
2018-06-11T18:59:20.932Z,21.60
2018-06-11T19:01:48.381Z,21.50
2018-06-11T19:04:15.843Z,21.40
2018-06-11T19:06:43.310Z,21.20
2018-06-11T19:09:10.266Z,21.00
2018-06-11T19:11:37.692Z,20.90
2018-06-11T19:14:04.694Z,20.70
2018-06-11T19:16:31.621Z,20.50
2018-06-11T19:18:58.646Z,20.40
2018-06-11T19:21:25.825Z,20.30
2018-06-11T19:23:52.790Z,20.20
2018-06-11T19:26:20.227Z,20.10
2018-06-11T19:28:47.174Z,20.10
2018-06-11T19:31:14.371Z,19.90
2018-06-11T19:33:41.313Z,19.90
2018-06-11T19:36:08.233Z,19.80
2018-06-11T19:38:35.439Z,19.70
2018-06-11T19:41:02.352Z,19.70
2018-06-11T19:43:29.283Z,19.60
2018-06-11T19:45:56.231Z,19.50
2018-06-11T19:48:23.144Z,19.50
2018-06-11T19:50:50.659Z,19.40
2018-06-11T19:53:17.593Z,19.30
2018-06-11T19:55:44.509Z,19.30
2018-06-11T19:58:11.426Z,19.30
2018-06-11T20:00:38.665Z,19.20
2018-06-11T20:03:05.581Z,19.10
2018-06-11T20:05:32.530Z,19.00
2018-06-11T20:07:59.473Z,19.00
2018-06-11T20:10:26.418Z,19.00
2018-06-11T20:12:53.333Z,19.00
2018-06-11T20:15:20.286Z,19.00
2018-06-11T20:17:47.206Z,19.00
2018-06-11T20:20:14.162Z,19.00
2018-06-11T20:22:41.082Z,19.00
2018-06-11T20:25:08.058Z,19.00
2018-06-11T20:27:34.983Z,19.10
2018-06-11T20:30:01.902Z,19.10
2018-06-11T20:32:28.884Z,19.10
2018-06-11T20:34:55.806Z,19.10
2018-06-11T20:37:22.760Z,19.10
2018-06-11T20:39:49.723Z,19.00
2018-06-11T20:42:16.674Z,19.00
2018-06-11T20:44:43.938Z,19.00
2018-06-11T20:47:10.894Z,18.90
2018-06-11T20:49:37.812Z,18.90
2018-06-11T20:52:04.765Z,18.90
2018-06-11T20:54:31.683Z,18.80
2018-06-11T20:56:59.149Z,18.70
2018-06-11T20:59:26.583Z,18.70
2018-06-11T21:01:54.391Z,18.70
2018-06-11T21:04:21.823Z,18.80
2018-06-11T21:06:49.365Z,18.80
2018-06-11T21:09:16.771Z,18.70
2018-06-11T21:11:43.731Z,18.70
2018-06-11T21:14:11.159Z,18.70
2018-06-11T21:16:38.103Z,18.60
2018-06-11T21:19:05.035Z,18.60
2018-06-11T21:21:32.005Z,18.60
2018-06-11T21:23:58.942Z,18.60
2018-06-11T21:26:25.889Z,18.60
2018-06-11T21:28:53.330Z,18.60
2018-06-11T21:31:20.290Z,18.60
2018-06-11T21:33:47.718Z,18.50
2018-06-11T21:36:14.982Z,18.50
2018-06-11T21:38:42.420Z,18.60
2018-06-11T21:41:09.887Z,18.50
2018-06-11T21:43:37.330Z,18.60
2018-06-11T21:46:04.802Z,18.60
2018-06-11T21:48:32.558Z,18.50
2018-06-11T21:51:00.031Z,18.50
2018-06-11T21:53:27.466Z,18.50
2018-06-11T21:55:54.414Z,18.50
2018-06-11T21:58:21.838Z,18.50
2018-06-11T22:00:49.314Z,18.50
2018-06-11T22:03:16.286Z,18.50
2018-06-11T22:05:43.234Z,18.50
2018-06-11T22:08:10.154Z,18.50
2018-06-11T22:10:37.433Z,18.40
2018-06-11T22:13:04.886Z,18.40
2018-06-11T22:15:32.342Z,18.30
2018-06-11T22:25:21.114Z,18.20
2018-06-11T22:27:48.029Z,18.20
2018-06-11T22:30:14.992Z,18.20
2018-06-11T22:32:41.906Z,18.20
2018-06-11T22:35:08.850Z,18.20
2018-06-11T22:37:35.767Z,18.30
2018-06-11T22:40:02.722Z,18.30
2018-06-11T22:42:29.786Z,18.30
2018-06-11T22:47:23.873Z,18.30
2018-06-11T22:49:50.786Z,18.20
2018-06-11T22:52:17.727Z,18.20
2018-06-11T22:54:44.638Z,18.10
2018-06-11T22:57:11.577Z,18.00
2018-06-11T22:59:38.494Z,18.00
2018-06-11T23:02:05.430Z,18.00
2018-06-11T23:04:32.337Z,18.00
2018-06-11T23:06:59.300Z,18.00
2018-06-11T23:09:26.222Z,17.90
2018-06-11T23:11:53.129Z,17.80
2018-06-11T23:14:20.070Z,17.80
2018-06-11T23:16:46.993Z,17.70
2018-06-11T23:19:14.174Z,17.80
2018-06-11T23:21:41.089Z,17.80
2018-06-11T23:24:08.076Z,17.70
2018-06-11T23:26:35.036Z,17.70
2018-06-11T23:29:01.979Z,17.70
2018-06-11T23:31:28.891Z,17.70
2018-06-11T23:33:55.833Z,17.70
2018-06-11T23:36:22.741Z,17.70
2018-06-11T23:38:49.687Z,17.70
2018-06-11T23:41:16.924Z,17.70
2018-06-11T23:43:43.874Z,17.70
2018-06-11T23:46:10.790Z,17.60
2018-06-11T23:48:37.737Z,17.50
2018-06-11T23:51:05.039Z,17.50
2018-06-11T23:53:31.957Z,17.50
2018-06-11T23:55:59.150Z,17.40
2018-06-11T23:58:26.094Z,17.30
